Time;durP1;ratioP1;P1;durP2;ratioP2;P2;SDS_P1;SDS_P2;PMS_P1;PMS_P2;Temp;Humidity;BMP_temperature;BMP_pressure;BME280_temperature;BME280_humidity;BME280_pressure;Samples;Min_cycle;Max_cycle;Signal;HPM_P1;HPM_P2
2023/03/01 00:00:19;;;;;;;12.75;8.43;;;;;;;-1.41;55.86;102462.13;689108;28;1152;-84
2023/03/01 00:00:40;;;;;;;11.20;8.52;;;;;;;-1.45;55.60;102462.56;688831;28;1492;-85
2023/03/01 00:01:05;;;;;;;10.73;8.48;;;;;;;-1.35;55.79;102477.25;686705;28;910;-84
2023/03/01 00:01:29;;;;;;;11.45;8.25;;;;;;;-1.37;55.84;102477.84;683807;28;1549;-84
2023/03/01 00:01:49;;;;;;;11.15;7.93;;;;;;;-1.44;55.74;102466.94;686638;28;1356;-84
2023/03/01 00:02:10;;;;;;;9.60;8.10;;;;;;;-1.38;55.92;102476.91;689201;28;961;-84
2023/03/01 00:02:30;;;;;;;9.83;7.80;;;;;;;-1.50;55.78;102455.16;686525;28;1142;-84
2023/03/01 00:02:51;;;;;;;9.70;7.80;;;;;;;-1.47;55.80;102458.03;688571;28;855;-84
2023/03/01 00:03:12;;;;;;;11.00;7.88;;;;;;;-1.41;55.93;102474.03;685770;28;1156;-84
2023/03/01 00:03:34;;;;;;;10.32;8.00;;;;;;;-1.41;56.03;102477.50;686185;28;966;-84
2023/03/01 00:03:56;;;;;;;11.88;8.10;;;;;;;-1.50;55.78;102456.06;686186;28;974;-85
2023/03/01 00:04:16;;;;;;;11.30;7.90;;;;;;;-1.47;55.96;102461.53;691779;28;1347;-85
2023/03/01 00:04:37;;;;;;;10.90;7.83;;;;;;;-1.40;56.11;102469.09;691503;28;1108;-85
2023/03/01 00:04:57;;;;;;;9.40;7.73;;;;;;;-1.43;55.79;102468.75;689100;28;1194;-83
2023/03/01 00:05:18;;;;;;;10.60;8.00;;;;;;;-1.47;55.73;102456.41;686310;28;1095;-84
2023/03/01 00:05:45;;;;;;;10.83;7.87;;;;;;;-1.49;56.09;102452.75;686139;28;1108;-84
2023/03/01 00:06:06;;;;;;;11.15;7.70;;;;;;;-1.47;55.91;102458.03;689037;28;1366;-84
2023/03/01 00:06:27;;;;;;;10.57;7.78;;;;;;;-1.42;55.93;102462.00;688818;28;1296;-85
2023/03/01 00:06:48;;;;;;;10.30;7.80;;;;;;;-1.45;55.85;102464.22;686327;28;789;-85
2023/03/01 00:07:08;;;;;;;9.80;7.55;;;;;;;-1.47;55.71;102461.53;686375;28;1183;-84
2023/03/01 00:07:29;;;;;;;9.43;7.33;;;;;;;-1.42;56.05;102472.25;691651;28;992;-84
2023/03/01 00:07:55;;;;;;;9.57;7.45;;;;;;;-1.48;55.75;102458.78;691622;28;1144;-84
2023/03/01 00:08:16;;;;;;;10.07;7.75;;;;;;;-1.43;55.97;102468.75;685028;28;910;-85
2023/03/01 00:08:37;;;;;;;10.60;7.83;;;;;;;-1.50;55.76;102455.16;685920;28;1998;-84
2023/03/01 00:08:57;;;;;;;11.17;7.97;;;;;;;-1.46;55.62;102467.53;689062;28;923;-85
2023/03/01 00:09:18;;;;;;;11.17;8.10;;;;;;;-1.50;56.11;102460.28;691615;28;1259;-83
2023/03/01 00:09:39;;;;;;;11.57;8.52;;;;;;;-1.40;55.89;102480.97;691510;28;1238;-84
2023/03/01 00:10:00;;;;;;;10.73;8.30;;;;;;;-1.47;56.11;102468.28;689040;28;1049;-86
2023/03/01 00:10:21;;;;;;;10.00;8.00;;;;;;;-1.48;55.82;102463.91;686254;28;1228;-84
2023/03/01 00:10:41;;;;;;;8.45;7.40;;;;;;;-1.49;55.69;102456.97;686057;28;1285;-84
2023/03/01 00:11:19;;;;;;;10.20;7.40;;;;;;;-1.40;55.82;102474.22;686174;28;1401;-84
2023/03/01 00:11:41;;;;;;;11.98;7.80;;;;;;;-1.51;56.15;102459.38;688746;28;1262;-84
2023/03/01 00:12:01;;;;;;;10.48;7.80;;;;;;;-1.49;56.10;102468.09;689110;28;772;-86
2023/03/01 00:12:22;;;;;;;9.68;7.60;;;;;;;-1.49;55.79;102454.41;688481;28;1152;-84
2023/03/01 00:12:42;;;;;;;11.82;7.97;;;;;;;-1.54;55.88;102459.94;685580;28;1033;-85
2023/03/01 00:13:05;;;;;;;11.53;8.00;;;;;;;-1.44;55.88;102472.06;685581;28;1089;-84
2023/03/01 00:13:25;;;;;;;11.88;8.30;;;;;;;-1.53;56.07;102466.00;685436;28;1285;-85
2023/03/01 00:13:48;;;;;;;10.60;8.33;;;;;;;-1.52;56.21;102467.81;685574;28;1107;-85
2023/03/01 00:14:09;;;;;;;10.98;8.40;;;;;;;-1.58;55.86;102459.47;690919;28;1288;-84
2023/03/01 00:14:29;;;;;;;11.40;8.50;;;;;;;-1.58;56.00;102462.94;690665;28;1329;-84
2023/03/01 00:14:50;;;;;;;11.20;8.38;;;;;;;-1.53;56.26;102468.56;688267;28;1059;-85
2023/03/01 00:15:11;;;;;;;11.27;8.23;;;;;;;-1.56;56.17;102463.13;685453;28;1335;-84
2023/03/01 00:15:32;;;;;;;10.57;8.00;;;;;;;-1.50;56.11;102476.53;682726;29;1154;-84
2023/03/01 00:15:52;;;;;;;12.10;8.20;;;;;;;-1.49;56.24;102477.47;688372;28;765;-84
2023/03/01 00:16:16;;;;;;;13.30;8.67;;;;;;;-1.56;56.26;102464.00;691061;28;1078;-84
2023/03/01 00:16:40;;;;;;;12.70;8.52;;;;;;;-1.60;56.15;102453.28;690656;28;1379;-84
2023/03/01 00:17:01;;;;;;;12.57;8.32;;;;;;;-1.58;56.37;102456.91;685453;28;830;-85
2023/03/01 00:17:22;;;;;;;11.95;7.93;;;;;;;-1.59;56.19;102457.66;688321;28;1146;-84
2023/03/01 00:17:42;;;;;;;12.77;8.03;;;;;;;-1.58;56.17;102456.91;688085;28;1407;-84
2023/03/01 00:18:03;;;;;;;12.60;8.43;;;;;;;-1.56;55.99;102464.00;685420;28;1217;-85
2023/03/01 00:18:23;;;;;;;12.27;8.17;;;;;;;-1.55;56.23;102459.81;688130;28;1247;-85
2023/03/01 00:18:44;;;;;;;11.48;8.00;;;;;;;-1.55;56.13;102462.38;685631;28;826;-85
2023/03/01 00:19:07;;;;;;;10.23;7.60;;;;;;;-1.60;56.10;102458.41;688200;28;1107;-84
2023/03/01 00:19:27;;;;;;;11.82;8.02;;;;;;;-1.56;56.11;102465.69;688097;28;1267;-85
2023/03/01 00:19:48;;;;;;;11.87;8.37;;;;;;;-1.64;56.31;102451.13;690937;28;1174;-84
2023/03/01 00:20:10;;;;;;;12.73;8.40;;;;;;;-1.55;56.07;102467.50;688176;28;1056;-84
2023/03/01 00:20:30;;;;;;;12.50;8.40;;;;;;;-1.58;56.01;102462.94;685816;28;1280;-84
2023/03/01 00:20:55;;;;;;;12.43;8.37;;;;;;;-1.60;56.30;102461.91;691411;28;1151;-84
2023/03/01 00:21:15;;;;;;;11.18;8.20;;;;;;;-1.63;56.10;102460.66;693581;28;1269;-84
2023/03/01 00:21:36;;;;;;;11.80;8.38;;;;;;;-1.63;56.08;102464.13;690793;28;1157;-84
2023/03/01 00:21:56;;;;;;;12.43;8.48;;;;;;;-1.59;56.55;102460.22;688203;28;1250;-84
2023/03/01 00:22:17;;;;;;;12.30;8.50;;;;;;;-1.65;56.48;102449.34;690914;28;1280;-84
2023/03/01 00:22:38;;;;;;;11.45;8.20;;;;;;;-1.58;56.23;102462.03;688080;28;1148;-84
2023/03/01 00:22:59;;;;;;;10.35;8.10;;;;;;;-1.53;56.40;102473.69;688233;28;881;-84
2023/03/01 00:23:20;;;;;;;9.98;8.18;;;;;;;-1.63;56.40;102453.88;685582;28;1194;-84
2023/03/01 00:23:41;;;;;;;10.13;8.35;;;;;;;-1.66;56.61;102448.44;685479;28;1003;-84
2023/03/01 00:24:03;;;;;;;9.82;8.10;;;;;;;-1.64;56.30;102461.38;682767;28;1353;-84
2023/03/01 00:24:23;;;;;;;10.13;8.30;;;;;;;-1.62;56.26;102462.47;685520;28;1067;-85
2023/03/01 00:24:44;;;;;;;13.05;8.52;;;;;;;-1.69;56.19;102459.25;688243;28;792;-84
2023/03/01 00:25:05;;;;;;;14.15;8.93;;;;;;;-1.68;56.42;102455.94;688258;28;1119;-83
2023/03/01 00:25:25;;;;;;;13.03;8.50;;;;;;;-1.68;56.33;102458.50;688571;28;1060;-85
2023/03/01 00:25:46;;;;;;;10.07;7.90;;;;;;;-1.73;56.08;102451.09;688496;28;1201;-84
2023/03/01 00:26:09;;;;;;;10.23;7.65;;;;;;;-1.71;56.62;102450.53;685440;28;1162;-84
2023/03/01 00:26:32;;;;;;;13.18;8.32;;;;;;;-1.71;56.62;102449.59;682694;29;1148;-84
2023/03/01 00:26:55;;;;;;;13.15;8.60;;;;;;;-1.60;56.41;102466.09;682839;29;837;-84
2023/03/01 00:27:15;;;;;;;12.32;8.30;;;;;;;-1.65;56.46;102460.50;688132;28;1390;-84
2023/03/01 00:27:36;;;;;;;9.63;7.90;;;;;;;-1.60;56.45;102468.66;685502;28;1082;-84
2023/03/01 00:27:57;;;;;;;12.50;7.85;;;;;;;-1.69;56.60;102454.16;688372;28;689;-84
2023/03/01 00:28:18;;;;;;;12.90;7.90;;;;;;;-1.74;56.70;102445.06;688159;28;1289;-84
2023/03/01 00:28:40;;;;;;;13.93;7.82;;;;;;;-1.72;56.62;102448.72;685448;28;1911;-84
2023/03/01 00:29:02;;;;;;;10.82;7.65;;;;;;;-1.67;56.50;102456.88;685484;28;1295;-84
2023/03/01 00:29:25;;;;;;;11.32;7.50;;;;;;;-1.61;56.29;102471.97;688383;28;720;-84
2023/03/01 00:29:46;;;;;;;10.25;7.50;;;;;;;-1.65;56.40;102464.69;688188;28;1339;-84
2023/03/01 00:30:07;;;;;;;10.57;7.90;;;;;;;-1.70;56.37;102456.53;682802;29;1206;-84
2023/03/01 00:30:28;;;;;;;10.20;7.90;;;;;;;-1.77;56.32;102447.31;685485;28;1038;-84
2023/03/01 00:30:48;;;;;;;12.70;8.30;;;;;;;-1.70;56.22;102457.44;682851;28;1131;-84
2023/03/01 00:31:12;;;;;;;12.68;8.38;;;;;;;-1.73;56.27;102452.00;688205;28;1099;-84
2023/03/01 00:31:33;;;;;;;12.80;7.88;;;;;;;-1.78;56.43;102450.63;685316;28;1103;-84
2023/03/01 00:31:53;;;;;;;11.30;7.65;;;;;;;-1.71;56.41;102463.31;682869;28;1323;-84
2023/03/01 00:32:14;;;;;;;10.93;7.90;;;;;;;-1.78;56.19;102449.69;685695;28;1085;-84
2023/03/01 00:32:35;;;;;;;11.70;8.73;;;;;;;-1.77;56.36;102454.06;682734;28;1153;-84
2023/03/01 00:32:55;;;;;;;11.77;8.85;;;;;;;-1.80;56.37;102449.56;688297;28;835;-84
2023/03/01 00:33:18;;;;;;;12.00;8.65;;;;;;;-1.83;56.63;102447.59;685504;28;1108;-84
2023/03/01 00:33:39;;;;;;;12.18;8.20;;;;;;;-1.71;56.83;102471.00;688060;28;1179;-84
2023/03/01 00:34:03;;;;;;;11.15;7.95;;;;;;;-1.77;56.72;102459.19;688239;28;815;-84
2023/03/01 00:34:23;;;;;;;10.73;7.88;;;;;;;-1.83;56.60;102449.22;693565;28;1336;-84
2023/03/01 00:34:53;;;;;;;9.00;7.47;;;;;;;-1.79;56.87;102461.59;688338;28;1078;-84
2023/03/01 00:35:14;;;;;;;10.02;8.00;;;;;;;-1.81;56.73;102457.97;690946;28;995;-84
2023/03/01 00:35:35;;;;;;;10.55;8.10;;;;;;;-1.78;56.50;102463.41;682719;29;1183;-84
2023/03/01 00:35:58;;;;;;;11.00;7.90;;;;;;;-1.86;56.79;102444.69;685665;28;783;-84
2023/03/01 00:36:19;;;;;;;11.40;8.10;;;;;;;-1.79;56.80;102459.06;688223;28;1014;-84
2023/03/01 00:36:40;;;;;;;11.00;8.38;;;;;;;-1.83;56.82;102462.00;688034;28;1040;-84
2023/03/01 00:37:04;;;;;;;11.60;8.43;;;;;;;-1.78;56.90;102463.41;685475;28;1206;-84
2023/03/01 00:37:25;;;;;;;11.32;7.63;;;;;;;-1.81;56.66;102457.97;685365;28;1055;-84
2023/03/01 00:37:46;;;;;;;11.18;7.60;;;;;;;-1.80;56.72;102462.34;685388;28;1150;-84
2023/03/01 00:38:07;;;;;;;11.05;8.02;;;;;;;-1.76;56.75;102466.13;688302;28;1166;-84
2023/03/01 00:38:27;;;;;;;11.50;8.80;;;;;;;-1.73;56.77;102469.03;688047;28;1168;-84
2023/03/01 00:38:48;;;;;;;11.97;9.00;;;;;;;-1.88;56.64;102450.38;688305;28;865;-84
2023/03/01 00:39:13;;;;;;;11.77;8.85;;;;;;;-1.84;56.90;102449.97;688125;28;1205;-85
2023/03/01 00:39:34;;;;;;;11.40;8.40;;;;;;;-1.83;56.57;102459.47;690674;28;1097;-84
2023/03/01 00:39:55;;;;;;;10.67;8.30;;;;;;;-1.90;56.53;102447.69;685583;28;925;-84
2023/03/01 00:40:16;;;;;;;10.33;8.23;;;;;;;-1.92;56.88;102443.13;685620;28;1000;-84
2023/03/01 00:40:36;;;;;;;9.40;8.10;;;;;;;-1.86;57.06;102454.91;687991;28;1078;-84
2023/03/01 00:41:07;;;;;;;9.88;8.00;;;;;;;-1.90;56.87;102452.78;688802;28;1225;-84
2023/03/01 00:41:27;;;;;;;11.80;8.10;;;;;;;-1.83;57.07;102456.91;688156;28;1022;-84
2023/03/01 00:41:48;;;;;;;12.43;8.10;;;;;;;-1.92;57.18;102438.91;685581;28;1164;-84
2023/03/01 00:42:09;;;;;;;11.55;7.75;;;;;;;-1.93;57.05;102436.22;688114;28;1208;-84
2023/03/01 00:42:29;;;;;;;10.48;7.50;;;;;;;-1.82;56.79;102456.16;690735;28;1231;-84
2023/03/01 00:42:50;;;;;;;9.23;7.35;;;;;;;-1.84;56.83;102455.09;690952;28;1328;-84
2023/03/01 00:43:11;;;;;;;11.38;7.90;;;;;;;-1.88;56.85;102445.25;685546;28;1012;-84
2023/03/01 00:43:36;;;;;;;12.23;8.10;;;;;;;-1.89;56.76;102438.31;682823;28;1103;-84
2023/03/01 00:43:56;;;;;;;13.48;7.95;;;;;;;-1.85;56.92;102445.59;688317;28;763;-84
2023/03/01 00:44:17;;;;;;;12.63;8.10;;;;;;;-1.83;56.95;102454.34;688130;28;1211;-84
2023/03/01 00:44:38;;;;;;;12.23;8.00;;;;;;;-1.90;56.96;102442.56;688101;28;1111;-84
2023/03/01 00:44:58;;;;;;;11.43;7.68;;;;;;;-1.88;57.31;102450.38;685552;28;849;-84
2023/03/01 00:45:19;;;;;;;9.83;7.30;;;;;;;-1.85;57.09;102456.72;690964;28;968;-84
2023/03/01 00:45:39;;;;;;;10.43;7.60;;;;;;;-1.98;56.82;102435.72;685315;28;1189;-84
2023/03/01 00:46:01;;;;;;;9.50;7.75;;;;;;;-1.94;57.19;102440.41;685649;28;772;-84
2023/03/01 00:46:25;;;;;;;13.02;7.93;;;;;;;-1.85;56.87;102458.41;685588;28;1136;-84
2023/03/01 00:46:46;;;;;;;13.25;7.35;;;;;;;-1.90;57.04;102446.75;690913;28;940;-84
2023/03/01 00:47:07;;;;;;;13.95;7.72;;;;;;;-1.96;57.21;102437.69;690860;28;1315;-84
2023/03/01 00:47:29;;;;;;;12.47;7.90;;;;;;;-1.85;57.18;102455.84;690822;28;1314;-84
2023/03/01 00:47:50;;;;;;;10.40;7.60;;;;;;;-1.88;57.11;102456.41;685706;28;787;-84
2023/03/01 00:48:11;;;;;;;9.48;7.30;;;;;;;-1.96;56.86;102437.69;688177;28;1003;-84
2023/03/01 00:48:32;;;;;;;9.60;7.30;;;;;;;-1.84;56.88;102455.09;687927;28;1927;-84
2023/03/01 00:48:53;;;;;;;9.20;7.38;;;;;;;-1.88;57.05;102445.25;690831;28;1121;-84
2023/03/01 00:49:15;;;;;;;10.15;7.70;;;;;;;-1.85;57.03;102450.72;690816;28;1142;-84
2023/03/01 00:49:35;;;;;;;10.00;7.73;;;;;;;-1.94;56.82;102432.72;690741;28;1028;-84
2023/03/01 00:49:56;;;;;;;9.55;7.75;;;;;;;-1.95;56.78;102431.84;682911;28;808;-84
2023/03/01 00:50:18;;;;;;;9.18;7.70;;;;;;;-1.92;57.03;102435.47;688056;28;1225;-84
2023/03/01 00:50:38;;;;;;;9.48;7.72;;;;;;;-1.84;56.96;102457.66;685415;28;984;-84
2023/03/01 00:51:19;;;;;;;10.47;8.20;;;;;;;-1.90;56.79;102447.69;685485;28;1325;-84
2023/03/01 00:51:41;;;;;;;10.57;7.68;;;;;;;-1.93;56.94;102439.66;682751;29;1038;-84
2023/03/01 00:52:01;;;;;;;11.25;7.50;;;;;;;-1.92;56.96;102438.00;688085;28;1054;-84
2023/03/01 00:52:22;;;;;;;10.38;7.88;;;;;;;-1.97;57.11;102435.88;685462;28;1026;-83
2023/03/01 00:52:43;;;;;;;11.10;8.03;;;;;;;-1.95;57.02;102444.63;688092;28;1151;-84
2023/03/01 00:53:04;;;;;;;9.65;7.80;;;;;;;-1.95;57.10;102442.06;688097;28;1262;-84
2023/03/01 00:53:25;;;;;;;9.88;7.80;;;;;;;-1.96;57.16;102430.03;688073;28;1366;-84
2023/03/01 00:53:46;;;;;;;9.57;7.70;;;;;;;-1.92;57.26;102438.91;688214;28;930;-84
2023/03/01 00:54:08;;;;;;;9.63;7.63;;;;;;;-1.96;56.90;102431.66;685488;28;1262;-84
2023/03/01 00:54:29;;;;;;;9.52;7.57;;;;;;;-1.97;57.13;102435.88;685231;28;1218;-84
2023/03/01 00:54:52;;;;;;;9.80;7.80;;;;;;;-1.97;57.16;102434.97;688213;28;1201;-84
2023/03/01 00:55:12;;;;;;;10.43;7.93;;;;;;;-1.95;57.06;102434.41;688093;28;1176;-84
2023/03/01 00:55:35;;;;;;;11.25;8.07;;;;;;;-1.87;57.07;102447.97;685439;28;1068;-84
2023/03/01 00:55:57;;;;;;;9.70;7.38;;;;;;;-1.94;56.92;102440.41;685422;28;1242;-84
2023/03/01 00:56:19;;;;;;;9.77;7.60;;;;;;;-1.91;57.05;102437.25;690796;28;1031;-84
2023/03/01 00:56:39;;;;;;;8.82;7.75;;;;;;;-1.92;56.84;102436.34;690696;28;1094;-84
2023/03/01 00:57:00;;;;;;;10.50;8.27;;;;;;;-1.90;56.88;102446.75;685525;28;1154;-84
2023/03/01 00:57:20;;;;;;;10.35;8.15;;;;;;;-1.93;56.80;102431.97;688068;28;1067;-84
2023/03/01 00:57:41;;;;;;;10.90;8.20;;;;;;;-1.96;56.79;102432.59;688022;28;1319;-84
2023/03/01 00:58:02;;;;;;;9.95;7.60;;;;;;;-1.90;57.03;102446.75;688105;28;1536;-84
2023/03/01 00:58:23;;;;;;;9.87;7.60;;;;;;;-1.97;57.20;102437.53;688119;28;1267;-84
2023/03/01 00:58:44;;;;;;;9.02;7.30;;;;;;;-1.99;57.10;102432.25;688267;28;940;-84
2023/03/01 00:59:04;;;;;;;9.63;7.60;;;;;;;-1.98;57.28;102444.28;690800;28;1204;-84
2023/03/01 00:59:25;;;;;;;9.20;7.43;;;;;;;-1.94;56.99;102445.53;688128;28;1017;-84
2023/03/01 00:59:45;;;;;;;9.10;7.40;;;;;;;-2.05;57.01;102434.16;690869;28;1266;-84
2023/03/01 01:00:07;;;;;;;8.88;7.35;;;;;;;-1.98;57.16;102444.28;688118;28;1217;-84
2023/03/01 01:00:28;;;;;;;10.70;7.88;;;;;;;-1.96;57.12;102453.06;685511;28;985;-84
2023/03/01 01:00:50;;;;;;;11.23;8.25;;;;;;;-2.04;57.11;102438.50;685535;28;1457;-84
2023/03/01 01:01:19;;;;;;;11.07;8.30;;;;;;;-1.95;56.91;102459.97;685474;28;1172;-84
2023/03/01 01:01:40;;;;;;;9.52;8.05;;;;;;;-2.07;57.21;102433.09;688093;28;1095;-84
2023/03/01 01:02:00;;;;;;;10.13;7.55;;;;;;;-1.99;57.08;102447.59;685654;28;1318;-84
2023/03/01 01:02:21;;;;;;;11.50;7.80;;;;;;;-2.10;57.07;102435.34;685737;28;1116;-84
2023/03/01 01:02:41;;;;;;;12.77;8.00;;;;;;;-2.10;57.11;102430.22;685832;28;990;-84
2023/03/01 01:03:02;;;;;;;11.00;7.97;;;;;;;-2.08;56.88;102436.38;688471;28;1198;-84
2023/03/01 01:03:24;;;;;;;9.75;8.00;;;;;;;-2.14;56.96;102425.50;691219;28;1124;-84
2023/03/01 01:03:50;;;;;;;10.38;8.27;;;;;;;-2.06;57.33;102437.44;691076;28;1257;-84
2023/03/01 01:04:12;;;;;;;10.70;8.32;;;;;;;-2.14;57.14;102431.53;688677;28;984;-84
2023/03/01 01:04:33;;;;;;;10.52;8.15;;;;;;;-2.12;57.13;102430.03;688309;28;1076;-84
2023/03/01 01:04:53;;;;;;;9.68;7.80;;;;;;;-2.12;57.13;102424.91;693854;28;1239;-84
2023/03/01 01:05:14;;;;;;;10.25;7.55;;;;;;;-2.10;57.26;102430.22;693900;28;1178;-83
2023/03/01 01:05:34;;;;;;;10.70;7.60;;;;;;;-2.00;57.24;102445.78;690959;28;1047;-84
2023/03/01 01:05:55;;;;;;;10.88;7.97;;;;;;;-2.03;57.19;102448.03;685811;28;1345;-84
2023/03/01 01:06:22;;;;;;;11.25;8.20;;;;;;;-2.03;57.14;102448.03;685727;28;1109;-83
2023/03/01 01:06:46;;;;;;;11.00;7.88;;;;;;;-2.11;57.11;102430.97;690839;28;1176;-84
2023/03/01 01:07:07;;;;;;;10.98;7.60;;;;;;;-2.10;57.24;102430.22;688320;28;1003;-84
2023/03/01 01:07:27;;;;;;;13.45;8.20;;;;;;;-2.06;57.20;102440.00;685757;28;1025;-84
2023/03/01 01:07:48;;;;;;;13.43;8.47;;;;;;;-2.12;57.38;102439.34;685769;28;879;-84
2023/03/01 01:08:08;;;;;;;12.13;8.00;;;;;;;-2.17;57.21;102428.63;688258;28;1319;-84
2023/03/01 01:08:29;;;;;;;9.43;7.60;;;;;;;-2.14;57.22;102431.53;688038;28;1914;-82
2023/03/01 01:08:51;;;;;;;9.52;7.55;;;;;;;-2.18;57.29;102419.16;687235;28;1205;-83
2023/03/01 01:09:16;;;;;;;10.45;8.13;;;;;;;-2.17;57.74;102422.63;687159;28;1134;-84
2023/03/01 01:09:37;;;;;;;11.50;8.40;;;;;;;-2.05;57.35;102439.25;684574;29;1021;-84
2023/03/01 01:09:58;;;;;;;10.63;8.00;;;;;;;-2.13;57.39;102424.75;686317;28;923;-84
2023/03/01 01:10:19;;;;;;;9.60;7.60;;;;;;;-2.07;57.50;102433.09;685552;28;1189;-84
2023/03/01 01:10:39;;;;;;;9.32;7.70;;;;;;;-2.07;57.59;102438.19;690817;28;1216;-84
2023/03/01 01:11:01;;;;;;;10.75;8.00;;;;;;;-2.14;57.29;102425.50;690980;28;1346;-84
2023/03/01 01:11:24;;;;;;;10.90;8.20;;;;;;;-2.17;57.22;102415.84;688284;28;1060;-83
2023/03/01 01:11:47;;;;;;;11.23;8.13;;;;;;;-2.09;57.35;102424.34;688281;28;1233;-84
2023/03/01 01:12:08;;;;;;;10.25;8.00;;;;;;;-2.11;57.17;102420.72;688189;28;1192;-83
2023/03/01 01:12:28;;;;;;;11.07;7.90;;;;;;;-2.13;57.44;102418.00;690845;28;1035;-83
2023/03/01 01:12:49;;;;;;;12.23;8.40;;;;;;;-2.06;57.46;102431.44;691001;28;1183;-83
2023/03/01 01:13:09;;;;;;;12.32;8.55;;;;;;;-2.16;57.41;102416.75;690939;28;1114;-83
2023/03/01 01:13:30;;;;;;;11.87;8.60;;;;;;;-2.15;57.18;102427.16;690701;28;1247;-83
2023/03/01 01:13:51;;;;;;;11.27;8.17;;;;;;;-2.14;57.43;102417.81;690967;28;922;-83
2023/03/01 01:14:12;;;;;;;10.90;7.80;;;;;;;-2.03;57.44;102440.34;685578;28;1056;-84
2023/03/01 01:14:33;;;;;;;12.07;7.95;;;;;;;-2.12;57.39;102424.00;682708;28;1085;-83
2023/03/01 01:14:54;;;;;;;11.52;8.07;;;;;;;-2.13;57.67;102425.66;685432;28;1194;-84
2023/03/01 01:15:16;;;;;;;14.10;8.40;;;;;;;-2.19;57.53;102425.00;688286;28;1210;-84
2023/03/01 01:15:36;;;;;;;14.07;8.43;;;;;;;-2.15;57.32;102426.25;690860;28;1133;-83
2023/03/01 01:16:01;;;;;;;14.13;8.40;;;;;;;-2.22;57.72;102412.78;690932;28;816;-83
2023/03/01 01:16:24;;;;;;;15.75;8.32;;;;;;;-2.14;57.61;102430.63;688136;28;1264;-83
2023/03/01 01:16:44;;;;;;;15.15;8.30;;;;;;;-2.15;57.70;102433.91;685442;28;1908;-84
2023/03/01 01:17:05;;;;;;;14.10;8.55;;;;;;;-2.15;57.74;102434.84;690903;28;1259;-83
2023/03/01 01:17:26;;;;;;;10.87;8.37;;;;;;;-2.20;57.78;102422.28;688222;28;1110;-83
2023/03/01 01:17:46;;;;;;;12.10;8.50;;;;;;;-2.23;57.71;102426.34;688412;28;850;-84
2023/03/01 01:18:07;;;;;;;11.68;8.10;;;;;;;-2.24;57.80;102421.97;691037;28;1003;-84
2023/03/01 01:18:28;;;;;;;14.73;8.40;;;;;;;-2.18;57.67;102439.63;690857;28;1048;-84
2023/03/01 01:18:48;;;;;;;14.83;8.50;;;;;;;-2.27;57.86;102421.66;690841;28;1304;-84
2023/03/01 01:19:11;;;;;;;15.10;8.68;;;;;;;-2.22;57.74;102427.25;685602;28;1203;-83
2023/03/01 01:19:31;;;;;;;11.43;8.40;;;;;;;-2.29;57.49;102423.13;685470;28;1040;-84
2023/03/01 01:19:52;;;;;;;9.50;7.90;;;;;;;-2.32;57.81;102417.69;688280;28;826;-84
2023/03/01 01:20:13;;;;;;;9.80;8.10;;;;;;;-2.24;57.84;102428.72;688196;28;1326;-84
2023/03/01 01:20:35;;;;;;;9.75;7.65;;;;;;;-2.22;57.60;102433.25;688050;28;1224;-84
2023/03/01 01:20:56;;;;;;;10.68;7.90;;;;;;;-2.30;57.59;102418.75;685449;28;1375;-83
2023/03/01 01:21:18;;;;;;;11.33;7.80;;;;;;;-2.26;57.84;102428.56;685434;28;1181;-84
2023/03/01 01:21:39;;;;;;;12.70;8.00;;;;;;;-2.33;57.86;102417.50;685464;28;1175;-84
2023/03/01 01:21:59;;;;;;;13.87;8.17;;;;;;;-2.25;57.75;102434.59;688217;28;1266;-84
2023/03/01 01:22:20;;;;;;;12.30;8.40;;;;;;;-2.33;57.69;102421.00;688352;28;1098;-84
2023/03/01 01:22:40;;;;;;;14.55;8.77;;;;;;;-2.34;57.91;102414.06;687927;28;1145;-83
2023/03/01 01:23:01;;;;;;;13.87;9.00;;;;;;;-2.30;57.66;102421.31;688228;28;1204;-84
2023/03/01 01:23:22;;;;;;;13.70;8.87;;;;;;;-2.28;57.59;102424.91;685559;28;1032;-84
2023/03/01 01:23:44;;;;;;;11.02;8.10;;;;;;;-2.21;57.68;102429.06;688043;28;1001;-84
2023/03/01 01:24:06;;;;;;;11.05;7.95;;;;;;;-2.27;57.76;102425.84;691148;28;1107;-84
2023/03/01 01:24:26;;;;;;;11.35;8.18;;;;;;;-2.25;57.76;102427.81;688660;28;1041;-83
2023/03/01 01:24:47;;;;;;;11.32;8.10;;;;;;;-2.29;57.61;102429.91;691377;28;1199;-84
2023/03/01 01:25:08;;;;;;;10.70;8.00;;;;;;;-2.28;57.78;102426.59;691407;28;1074;-84
2023/03/01 01:25:29;;;;;;;11.45;8.10;;;;;;;-2.34;57.99;102421.75;688584;28;1032;-84
2023/03/01 01:25:49;;;;;;;11.43;8.43;;;;;;;-2.34;57.72;102421.75;688757;28;820;-84
2023/03/01 01:26:19;;;;;;;12.20;8.37;;;;;;;-2.35;58.14;102419.94;691252;28;1170;-85
2023/03/01 01:26:40;;;;;;;12.93;8.30;;;;;;;-2.37;58.31;102413.72;688583;28;1047;-84
2023/03/01 01:27:01;;;;;;;12.85;8.30;;;;;;;-2.28;57.81;102427.47;688794;28;780;-83
2023/03/01 01:27:22;;;;;;;9.90;8.03;;;;;;;-2.33;57.73;102418.44;685988;28;1122;-84
2023/03/01 01:27:42;;;;;;;10.18;8.20;;;;;;;-2.30;57.84;102418.75;685940;28;1039;-84
2023/03/01 01:28:03;;;;;;;10.30;8.23;;;;;;;-2.32;57.50;102420.25;688696;28;1320;-84
2023/03/01 01:28:23;;;;;;;10.93;8.23;;;;;;;-2.36;58.12;102420.63;685848;28;1238;-84
2023/03/01 01:28:44;;;;;;;10.53;8.30;;;;;;;-2.36;58.03;102431.78;685966;28;1922;-84
2023/03/01 01:29:05;;;;;;;10.35;8.15;;;;;;;-2.43;57.72;102416.53;685943;28;1179;-84
2023/03/01 01:29:26;;;;;;;10.50;7.90;;;;;;;-2.35;57.87;102430.16;688457;28;1149;-84
2023/03/01 01:29:46;;;;;;;10.90;8.00;;;;;;;-2.42;57.80;102417.44;688203;28;1316;-84
2023/03/01 01:30:08;;;;;;;12.02;8.35;;;;;;;-2.39;57.98;102422.88;685998;28;1472;-84
2023/03/01 01:30:28;;;;;;;12.82;8.57;;;;;;;-2.34;57.78;102433.59;685822;28;1249;-84
2023/03/01 01:30:49;;;;;;;13.70;8.52;;;;;;;-2.33;58.24;102433.78;688840;28;728;-84
2023/03/01 01:31:09;;;;;;;12.97;8.20;;;;;;;-2.34;57.79;102431.97;685955;28;1263;-84
2023/03/01 01:31:31;;;;;;;12.50;8.40;;;;;;;-2.30;58.08;102434.09;688469;28;1160;-83
2023/03/01 01:31:51;;;;;;;11.57;8.60;;;;;;;-2.43;58.23;102407.97;683275;28;1400;-83
2023/03/01 01:32:12;;;;;;;13.13;8.53;;;;;;;-2.32;57.92;102433.03;685994;28;1290;-84
2023/03/01 01:32:33;;;;;;;13.30;8.65;;;;;;;-2.36;57.99;102428.31;685830;28;1295;-84
2023/03/01 01:32:53;;;;;;;14.38;8.43;;;;;;;-2.43;58.22;102415.63;686054;28;1082;-84
2023/03/01 01:33:14;;;;;;;15.30;8.73;;;;;;;-2.39;57.78;102420.31;686073;28;1100;-83
2023/03/01 01:33:47;;;;;;;15.25;8.73;;;;;;;-2.44;58.02;102409.59;688609;28;1137;-83
2023/03/01 01:34:12;;;;;;;13.25;8.63;;;;;;;-2.31;58.11;102431.38;688630;28;1497;-83
2023/03/01 01:34:38;;;;;;;13.77;8.30;;;;;;;-2.41;58.14;102414.16;685774;28;1378;-83
2023/03/01 01:34:59;;;;;;;13.20;8.65;;;;;;;-2.40;58.29;102421.97;686251;28;975;-84
2023/03/01 01:35:19;;;;;;;11.40;8.00;;;;;;;-2.33;58.22;102438.88;691392;28;1128;-84
2023/03/01 01:35:40;;;;;;;11.50;7.93;;;;;;;-2.31;58.01;102436.50;691133;28;1280;-84
2023/03/01 01:36:01;;;;;;;11.98;8.13;;;;;;;-2.39;58.05;102420.31;691332;28;1180;-84
2023/03/01 01:36:22;;;;;;;11.52;8.30;;;;;;;-2.34;58.11;102429.41;688629;28;1141;-84
2023/03/01 01:36:43;;;;;;;11.35;8.20;;;;;;;-2.31;57.99;102437.41;685878;28;1289;-84
2023/03/01 01:37:07;;;;;;;9.70;7.20;;;;;;;-2.37;58.00;102431.63;688559;28;1604;-84
2023/03/01 01:37:31;;;;;;;10.90;7.70;;;;;;;-2.37;57.98;102429.97;688676;28;1095;-84
2023/03/01 01:37:51;;;;;;;11.40;8.00;;;;;;;-2.34;58.19;102433.59;691416;28;888;-84
2023/03/01 01:38:12;;;;;;;11.50;8.20;;;;;;;-2.40;58.12;102418.50;685950;28;1206;-84
2023/03/01 01:38:33;;;;;;;11.60;8.10;;;;;;;-2.34;58.10;102429.41;691249;28;1304;-84
2023/03/01 01:38:54;;;;;;;12.77;8.20;;;;;;;-2.34;57.89;102447.31;686681;28;1370;-84
2023/03/01 01:39:15;;;;;;;12.80;7.88;;;;;;;-2.48;57.82;102417.66;686033;28;1011;-84
2023/03/01 01:39:36;;;;;;;11.93;7.65;;;;;;;-2.41;58.32;102434.59;685860;28;1507;-84
2023/03/01 01:39:59;;;;;;;11.37;7.87;;;;;;;-2.38;58.16;102435.84;688663;28;1085;-83
2023/03/01 01:40:20;;;;;;;11.07;8.05;;;;;;;-2.44;58.35;102435.19;685958;28;982;-83
2023/03/01 01:40:46;;;;;;;12.73;8.30;;;;;;;-2.42;58.16;102430.25;688461;28;1051;-84
2023/03/01 01:41:08;;;;;;;13.00;8.38;;;;;;;-2.50;58.08;102420.09;688642;28;1096;-84
2023/03/01 01:41:29;;;;;;;12.13;8.43;;;;;;;-2.43;58.17;102431.88;688547;28;1325;-84
2023/03/01 01:41:49;;;;;;;11.52;8.20;;;;;;;-2.52;58.07;102415.53;688628;28;1372;-84
2023/03/01 01:42:17;;;;;;;11.60;8.07;;;;;;;-2.57;58.20;102402.28;685998;28;1142;-83